Terminal Aerodrome Forecast
Issued by NWS

Home | Current Version | Previous Version | Text Only | Print | Product List | Glossary Off
Versions: 1 2 3 4 5 6 7 8 9 10 11 12 13 14 15 16 17 18 19 20 21 22 23 24 25 26 27

000
FTUS43 KABR 140502 AAC
TAFPIR
TAF AMD
KPIR 140502Z 1405/1424 14006KT P6SM VCSH OVC027
     FM140900 00000KT P6SM BKN015
     FM141200 26004KT P6SM BKN020
     FM141800 30013G21KT P6SM OVC025
     FM142000 33018G25KT 3SM BLSN OVC020=

USA.gov is the U.S. government's official web portal to all federal, state and local government web resources and services.